Time;durP1;ratioP1;P1;durP2;ratioP2;P2;SDS_P1;SDS_P2;PMS_P1;PMS_P2;Temp;Humidity;BMP_temperature;BMP_pressure;BME280_temperature;BME280_humidity;BME280_pressure;Samples;Min_cycle;Max_cycle;Signal;HPM_P1;HPM_P2
2024/04/20 00:00:21;;;;;;;11.82;7.00;;;;;;;;;;5376594;26;20004;-66
2024/04/20 00:02:47;;;;;;;12.43;7.43;;;;;;;;;;5375718;26;20004;-66
2024/04/20 00:05:13;;;;;;;11.68;6.80;;;;;;;;;;5387954;26;20323;-66
2024/04/20 00:07:39;;;;;;;11.88;6.97;;;;;;;;;;5413654;26;19991;-66
2024/04/20 00:10:05;;;;;;;11.48;6.68;;;;;;;;;;5411266;26;20314;-67
2024/04/20 00:12:31;;;;;;;11.77;6.97;;;;;;;;;;5412828;26;20034;-67
2024/04/20 00:14:57;;;;;;;11.65;6.78;;;;;;;;;;5412610;26;19991;-66
2024/04/20 00:17:24;;;;;;;11.65;7.05;;;;;;;;;;5412935;26;20461;-67
2024/04/20 00:19:50;;;;;;;11.13;6.55;;;;;;;;;;5413273;26;19995;-67
2024/04/20 00:22:16;;;;;;;11.50;6.70;;;;;;;;;;5413177;26;20741;-66
2024/04/20 00:24:42;;;;;;;13.38;7.43;;;;;;;;;;5412997;26;20006;-66
2024/04/20 00:27:08;;;;;;;11.57;6.75;;;;;;;;;;5412773;26;19991;-67
2024/04/20 00:29:34;;;;;;;11.27;6.60;;;;;;;;;;5412564;26;20008;-67
2024/04/20 00:32:00;;;;;;;11.60;6.70;;;;;;;;;;5412141;26;19995;-66
2024/04/20 00:34:29;;;;;;;12.30;7.07;;;;;;;;;;5412615;26;19987;-66
2024/04/20 00:36:55;;;;;;;11.77;6.88;;;;;;;;;;5412904;26;20023;-66
2024/04/20 00:39:21;;;;;;;11.50;6.70;;;;;;;;;;5413255;26;20066;-67
2024/04/20 00:41:47;;;;;;;11.20;6.60;;;;;;;;;;5410877;26;20008;-66
2024/04/20 00:44:13;;;;;;;11.52;6.90;;;;;;;;;;5411864;26;20035;-67
2024/04/20 00:46:40;;;;;;;11.38;6.68;;;;;;;;;;5412978;26;19995;-66
2024/04/20 00:49:07;;;;;;;11.80;6.93;;;;;;;;;;5413370;26;20003;-70
2024/04/20 00:51:33;;;;;;;15.73;7.45;;;;;;;;;;5412711;26;19992;-66
2024/04/20 00:54:00;;;;;;;11.45;6.78;;;;;;;;;;5411913;26;20003;-66
2024/04/20 00:56:26;;;;;;;11.02;6.47;;;;;;;;;;5412659;26;20002;-68
2024/04/20 00:58:52;;;;;;;11.30;6.80;;;;;;;;;;5412671;26;20031;-67
2024/04/20 01:01:18;;;;;;;11.40;6.70;;;;;;;;;;5412532;26;20003;-66
2024/04/20 01:03:44;;;;;;;11.15;6.55;;;;;;;;;;5411631;26;20416;-66
2024/04/20 01:06:11;;;;;;;10.95;6.50;;;;;;;;;;5412862;26;19996;-67
2024/04/20 01:08:37;;;;;;;11.77;7.15;;;;;;;;;;5413213;26;20035;-66
2024/04/20 01:11:03;;;;;;;11.25;6.60;;;;;;;;;;5413507;26;20000;-65
2024/04/20 01:13:29;;;;;;;11.98;7.22;;;;;;;;;;5415178;26;19991;-67
2024/04/20 01:15:55;;;;;;;12.15;6.40;;;;;;;;;;5415722;26;20000;-66
2024/04/20 01:18:21;;;;;;;11.55;6.90;;;;;;;;;;5413571;26;20069;-67
2024/04/20 01:20:48;;;;;;;10.50;6.22;;;;;;;;;;5413717;26;19995;-66
2024/04/20 01:23:14;;;;;;;10.45;6.15;;;;;;;;;;5412362;26;20059;-66
2024/04/20 01:25:50;;;;;;;10.73;6.25;;;;;;;;;;5413195;26;20040;-66
2024/04/20 01:28:16;;;;;;;10.32;6.10;;;;;;;;;;5412787;26;20003;-67
2024/04/20 01:30:42;;;;;;;10.80;6.60;;;;;;;;;;5412971;26;20131;-67
2024/04/20 01:33:08;;;;;;;10.35;6.13;;;;;;;;;;5412162;26;20003;-68
2024/04/20 01:35:34;;;;;;;10.75;6.30;;;;;;;;;;5412661;26;19988;-67
2024/04/20 01:38:00;;;;;;;15.07;6.60;;;;;;;;;;5412306;26;19988;-68
2024/04/20 01:40:26;;;;;;;11.85;7.57;;;;;;;;;;5413068;26;20035;-67
2024/04/20 01:42:53;;;;;;;10.90;6.78;;;;;;;;;;5412735;26;20069;-67
2024/04/20 01:45:19;;;;;;;10.50;6.30;;;;;;;;;;5410421;26;20045;-67
2024/04/20 01:47:45;;;;;;;9.80;5.78;;;;;;;;;;5412840;26;20002;-66
2024/04/20 01:50:12;;;;;;;9.93;5.85;;;;;;;;;;5412712;26;20004;-68
2024/04/20 01:52:38;;;;;;;9.93;5.85;;;;;;;;;;5412534;26;20039;-68
2024/04/20 01:55:04;;;;;;;10.00;5.88;;;;;;;;;;5411878;26;19995;-67
2024/04/20 01:57:30;;;;;;;9.43;5.60;;;;;;;;;;5412626;26;20000;-68
2024/04/20 01:59:56;;;;;;;9.68;5.70;;;;;;;;;;5412326;26;19999;-68
2024/04/20 02:02:22;;;;;;;10.05;5.93;;;;;;;;;;5411905;26;20056;-68
2024/04/20 02:04:48;;;;;;;9.93;5.88;;;;;;;;;;5409891;26;20326;-67
2024/04/20 02:07:14;;;;;;;9.35;5.53;;;;;;;;;;5411739;26;20007;-68
2024/04/20 02:09:44;;;;;;;10.30;6.10;;;;;;;;;;5411792;26;20502;-69
2024/04/20 02:12:10;;;;;;;10.38;6.30;;;;;;;;;;5411989;26;20003;-67
2024/04/20 02:14:37;;;;;;;10.10;5.93;;;;;;;;;;5411780;26;20011;-64
2024/04/20 02:17:03;;;;;;;10.40;6.10;;;;;;;;;;5414017;26;20001;-64
2024/04/20 02:19:29;;;;;;;10.00;5.90;;;;;;;;;;5414695;26;19998;-65
2024/04/20 02:21:55;;;;;;;9.90;5.80;;;;;;;;;;5408616;26;19999;-65
2024/04/20 02:24:21;;;;;;;10.20;6.38;;;;;;;;;;5410446;26;20035;-67
2024/04/20 02:26:47;;;;;;;9.80;5.80;;;;;;;;;;5412165;26;19999;-68
2024/04/20 02:29:13;;;;;;;10.02;5.95;;;;;;;;;;5412121;26;20002;-68
2024/04/20 02:31:39;;;;;;;10.15;6.03;;;;;;;;;;5412326;26;19999;-65
2024/04/20 02:34:05;;;;;;;9.82;5.85;;;;;;;;;;5411577;26;19999;-66
2024/04/20 02:36:32;;;;;;;10.00;5.85;;;;;;;;;;5411937;26;19999;-66
2024/04/20 02:38:57;;;;;;;9.70;5.75;;;;;;;;;;5412270;26;19992;-65
2024/04/20 02:41:23;;;;;;;9.90;5.90;;;;;;;;;;5412341;26;20014;-66
2024/04/20 02:43:49;;;;;;;9.70;5.72;;;;;;;;;;5411747;26;20004;-66
2024/04/20 02:46:15;;;;;;;9.75;5.80;;;;;;;;;;5412520;26;20023;-66
2024/04/20 02:48:41;;;;;;;9.88;5.85;;;;;;;;;;5412131;26;20479;-64
2024/04/20 02:51:08;;;;;;;10.43;6.10;;;;;;;;;;5410118;26;20002;-66
2024/04/20 02:53:34;;;;;;;10.27;6.05;;;;;;;;;;5411456;26;20007;-65
2024/04/20 02:56:00;;;;;;;10.32;6.15;;;;;;;;;;5412077;26;19995;-66
2024/04/20 02:58:26;;;;;;;9.85;5.80;;;;;;;;;;5411927;26;20450;-66
2024/04/20 03:00:59;;;;;;;9.68;5.70;;;;;;;;;;5411942;26;19995;-66
2024/04/20 03:03:26;;;;;;;9.80;5.80;;;;;;;;;;5411342;26;19995;-66
2024/04/20 03:05:52;;;;;;;10.02;6.07;;;;;;;;;;5411318;26;19995;-66
2024/04/20 03:08:18;;;;;;;9.88;5.80;;;;;;;;;;5411644;26;20034;-66
2024/04/20 03:10:45;;;;;;;9.57;5.70;;;;;;;;;;5409920;26;20007;-66
2024/04/20 03:13:12;;;;;;;9.70;5.70;;;;;;;;;;5409236;26;20035;-65
2024/04/20 03:15:38;;;;;;;9.90;5.88;;;;;;;;;;5412026;26;20010;-65
2024/04/20 03:18:04;;;;;;;9.77;5.78;;;;;;;;;;5411939;26;19992;-67
2024/04/20 03:20:30;;;;;;;9.20;5.45;;;;;;;;;;5411626;26;19996;-66
2024/04/20 03:22:56;;;;;;;9.77;5.78;;;;;;;;;;5410624;26;19996;-66
2024/04/20 03:25:22;;;;;;;9.60;5.60;;;;;;;;;;5409509;26;19991;-66
2024/04/20 03:27:48;;;;;;;9.27;5.50;;;;;;;;;;5410641;26;20582;-66
2024/04/20 03:30:14;;;;;;;10.10;5.90;;;;;;;;;;5411504;26;19991;-66
2024/04/20 03:32:40;;;;;;;9.90;5.88;;;;;;;;;;5410807;26;20072;-65
2024/04/20 03:35:06;;;;;;;9.80;5.80;;;;;;;;;;5412914;26;20002;-66
2024/04/20 03:37:33;;;;;;;10.00;5.90;;;;;;;;;;5414407;26;19995;-66
2024/04/20 03:39:59;;;;;;;10.70;6.30;;;;;;;;;;5413527;26;20027;-66
2024/04/20 03:42:25;;;;;;;10.07;5.95;;;;;;;;;;5411424;26;20011;-66
2024/04/20 03:44:51;;;;;;;10.27;6.07;;;;;;;;;;5413944;26;20060;-66
2024/04/20 03:47:19;;;;;;;9.82;5.80;;;;;;;;;;5413846;26;20002;-65
2024/04/20 03:49:45;;;;;;;;;;;;;;;;;;5413770;26;20068;-66
2024/04/20 03:52:11;;;;;;;10.20;6.00;;;;;;;;;;5413520;26;20383;-66
2024/04/20 03:54:37;;;;;;;10.07;5.93;;;;;;;;;;5413357;26;19999;-65
2024/04/20 03:57:03;;;;;;;10.43;6.10;;;;;;;;;;5413289;26;20103;-65
2024/04/20 03:59:29;;;;;;;10.05;5.93;;;;;;;;;;5413371;26;19996;-67
2024/04/20 04:01:55;;;;;;;9.45;5.65;;;;;;;;;;5412945;26;19992;-66
2024/04/20 04:04:21;;;;;;;9.80;5.80;;;;;;;;;;5412349;26;20036;-67
2024/04/20 04:06:47;;;;;;;10.20;6.00;;;;;;;;;;5413857;26;19991;-66
2024/04/20 04:09:13;;;;;;;10.07;6.00;;;;;;;;;;5413416;26;19999;-67
2024/04/20 04:11:40;;;;;;;10.25;6.05;;;;;;;;;;5412847;26;19999;-66
2024/04/20 04:14:06;;;;;;;10.50;6.20;;;;;;;;;;5412660;26;20341;-66
2024/04/20 04:16:32;;;;;;;10.55;6.25;;;;;;;;;;5411216;26;20023;-65
2024/04/20 04:18:58;;;;;;;10.40;6.15;;;;;;;;;;5412915;26;20477;-66
2024/04/20 04:21:24;;;;;;;10.35;6.10;;;;;;;;;;5412659;26;20085;-65
2024/04/20 04:23:50;;;;;;;10.57;6.20;;;;;;;;;;5411804;26;20073;-65
2024/04/20 04:26:16;;;;;;;11.10;6.50;;;;;;;;;;5412827;26;19995;-65
2024/04/20 04:28:42;;;;;;;10.80;6.40;;;;;;;;;;5412796;26;20680;-65
2024/04/20 04:31:08;;;;;;;10.57;6.25;;;;;;;;;;5412679;26;20012;-66
2024/04/20 04:33:34;;;;;;;10.70;6.32;;;;;;;;;;5409899;26;19995;-66
2024/04/20 04:36:01;;;;;;;10.70;6.28;;;;;;;;;;5413007;26;19992;-66
2024/04/20 04:38:27;;;;;;;10.57;6.20;;;;;;;;;;5414549;26;20023;-66
2024/04/20 04:40:53;;;;;;;10.45;6.20;;;;;;;;;;5411428;26;20011;-65
2024/04/20 04:43:19;;;;;;;10.73;6.60;;;;;;;;;;5414518;26;19999;-66
2024/04/20 04:45:46;;;;;;;10.60;6.22;;;;;;;;;;5413397;26;20007;-66
2024/04/20 04:48:15;;;;;;;10.93;6.40;;;;;;;;;;5410656;26;20026;-66
2024/04/20 04:50:41;;;;;;;10.18;6.00;;;;;;;;;;5410734;26;20019;-65
2024/04/20 04:53:08;;;;;;;10.02;5.95;;;;;;;;;;5409657;26;20507;-66
2024/04/20 04:55:34;;;;;;;10.23;6.00;;;;;;;;;;5411992;26;20477;-65
2024/04/20 04:57:59;;;;;;;10.40;6.10;;;;;;;;;;5412368;26;19988;-66
2024/04/20 05:00:25;;;;;;;10.88;6.40;;;;;;;;;;5411999;26;19995;-66
2024/04/20 05:02:51;;;;;;;10.38;6.10;;;;;;;;;;5412243;26;20031;-65
2024/04/20 05:05:17;;;;;;;9.90;5.90;;;;;;;;;;5412391;26;20010;-65
2024/04/20 05:07:45;;;;;;;10.05;5.93;;;;;;;;;;5412377;26;19995;-66
2024/04/20 05:10:11;;;;;;;10.07;5.93;;;;;;;;;;5413713;26;20072;-66
2024/04/20 05:12:37;;;;;;;10.30;6.10;;;;;;;;;;5412841;26;20067;-66
2024/04/20 05:15:03;;;;;;;10.02;5.90;;;;;;;;;;5409661;26;20319;-65
2024/04/20 05:17:30;;;;;;;10.18;6.00;;;;;;;;;;5411677;26;20003;-66
2024/04/20 05:19:56;;;;;;;10.13;6.00;;;;;;;;;;5410381;26;20007;-65
2024/04/20 05:22:22;;;;;;;10.23;6.00;;;;;;;;;;5411815;26;20096;-66
2024/04/20 05:24:48;;;;;;;10.85;6.38;;;;;;;;;;5411762;26;19999;-67
2024/04/20 05:27:17;;;;;;;10.10;6.00;;;;;;;;;;5412094;26;20006;-66
2024/04/20 05:29:43;;;;;;;10.23;6.03;;;;;;;;;;5411870;26;19999;-65
2024/04/20 05:32:09;;;;;;;10.68;6.22;;;;;;;;;;5412067;26;20066;-66
2024/04/20 05:34:35;;;;;;;10.65;6.25;;;;;;;;;;5403419;26;20050;-66
2024/04/20 05:37:01;;;;;;;10.27;6.10;;;;;;;;;;5376753;26;20003;-67
2024/04/20 05:39:27;;;;;;;10.25;6.05;;;;;;;;;;5378825;26;20013;-66
2024/04/20 05:41:53;;;;;;;10.70;6.22;;;;;;;;;;5411894;26;19992;-66
2024/04/20 05:44:19;;;;;;;10.70;6.30;;;;;;;;;;5411553;26;19991;-66
2024/04/20 05:46:45;;;;;;;10.60;6.20;;;;;;;;;;5411422;26;19999;-66
2024/04/20 05:49:11;;;;;;;9.80;5.80;;;;;;;;;;5411867;26;20007;-66
2024/04/20 05:51:37;;;;;;;10.13;5.95;;;;;;;;;;5411228;26;20000;-65
2024/04/20 05:54:03;;;;;;;9.50;5.63;;;;;;;;;;5410999;26;20341;-66
2024/04/20 05:56:30;;;;;;;9.32;5.55;;;;;;;;;;5411532;26;19999;-65
2024/04/20 05:58:56;;;;;;;9.93;5.85;;;;;;;;;;5410121;26;19992;-65
2024/04/20 06:01:23;;;;;;;9.82;5.80;;;;;;;;;;5410767;26;20041;-65
2024/04/20 06:03:49;;;;;;;10.48;5.93;;;;;;;;;;5410051;26;20034;-64
2024/04/20 06:06:15;;;;;;;9.88;5.80;;;;;;;;;;5406863;26;20018;-65
2024/04/20 06:08:41;;;;;;;10.75;6.45;;;;;;;;;;5376928;26;19989;-65
2024/04/20 06:11:09;;;;;;;10.10;5.95;;;;;;;;;;5375697;26;20033;-62
2024/04/20 06:13:35;;;;;;;10.20;6.00;;;;;;;;;;5377538;26;19992;-64
2024/04/20 06:16:02;;;;;;;10.68;6.60;;;;;;;;;;5411561;26;20010;-64
2024/04/20 06:18:29;;;;;;;9.82;5.80;;;;;;;;;;5410980;26;20652;-63
2024/04/20 06:20:55;;;;;;;9.88;5.80;;;;;;;;;;5411215;26;20037;-63
2024/04/20 06:23:21;;;;;;;9.85;5.82;;;;;;;;;;5409471;26;19996;-63
2024/04/20 06:25:48;;;;;;;9.95;5.80;;;;;;;;;;5408763;26;20067;-63
2024/04/20 06:28:14;;;;;;;10.18;6.00;;;;;;;;;;5411150;26;19995;-64
2024/04/20 06:30:40;;;;;;;10.73;6.28;;;;;;;;;;5411040;26;20019;-63
2024/04/20 06:33:06;;;;;;;10.68;6.25;;;;;;;;;;5410413;26;20452;-62
2024/04/20 06:35:32;;;;;;;10.98;6.60;;;;;;;;;;5410374;26;19995;-63
2024/04/20 06:37:58;;;;;;;11.32;6.65;;;;;;;;;;5410523;26;20077;-64
2024/04/20 06:40:24;;;;;;;10.68;6.20;;;;;;;;;;5406567;26;20432;-62
2024/04/20 06:42:50;;;;;;;9.93;5.88;;;;;;;;;;5391793;26;20040;-63
2024/04/20 06:45:16;;;;;;;10.45;6.20;;;;;;;;;;5394635;26;20000;-63
2024/04/20 06:47:43;;;;;;;10.32;6.10;;;;;;;;;;5391730;26;20006;-64
2024/04/20 06:50:09;;;;;;;10.52;6.18;;;;;;;;;;5393551;26;20391;-63
2024/04/20 06:52:35;;;;;;;11.90;6.40;;;;;;;;;;5408584;26;20020;-63
2024/04/20 06:55:01;;;;;;;10.52;6.15;;;;;;;;;;5409372;26;20000;-62
2024/04/20 06:57:27;;;;;;;10.38;6.10;;;;;;;;;;5408187;26;20007;-64
2024/04/20 06:59:58;;;;;;;11.40;6.60;;;;;;;;;;5409746;26;20348;-63
2024/04/20 07:02:25;;;;;;;10.40;6.07;;;;;;;;;;5374987;26;20583;-63
2024/04/20 07:04:52;;;;;;;10.43;6.10;;;;;;;;;;5374720;26;20089;-64
2024/04/20 07:07:18;;;;;;;10.20;6.00;;;;;;;;;;5375199;26;20006;-63
2024/04/20 07:09:47;;;;;;;10.45;6.10;;;;;;;;;;5377806;26;20312;-63
2024/04/20 07:12:13;;;;;;;12.30;6.50;;;;;;;;;;5377901;26;20065;-65
2024/04/20 07:14:39;;;;;;;10.95;6.43;;;;;;;;;;5377043;26;20008;-65
2024/04/20 07:17:05;;;;;;;10.90;6.35;;;;;;;;;;5378063;26;20473;-67
2024/04/20 07:19:31;;;;;;;10.63;6.25;;;;;;;;;;5377986;26;19992;-67
2024/04/20 07:21:57;;;;;;;10.60;6.20;;;;;;;;;;5377744;26;20007;-66
2024/04/20 07:24:23;;;;;;;11.60;6.72;;;;;;;;;;5377867;26;19996;-67
2024/04/20 07:26:49;;;;;;;11.32;6.63;;;;;;;;;;5377149;26;20016;-67
2024/04/20 07:29:15;;;;;;;12.00;7.07;;;;;;;;;;5376221;26;19992;-67
2024/04/20 07:31:41;;;;;;;12.18;7.07;;;;;;;;;;5378291;26;20369;-68
2024/04/20 07:34:07;;;;;;;12.18;7.05;;;;;;;;;;5377500;26;20065;-68
2024/04/20 07:36:33;;;;;;;12.95;7.50;;;;;;;;;;5378445;26;20008;-69
2024/04/20 07:38:59;;;;;;;13.00;7.50;;;;;;;;;;5377905;26;20524;-67
2024/04/20 07:41:25;;;;;;;12.88;7.40;;;;;;;;;;5377621;26;19992;-67
2024/04/20 07:43:51;;;;;;;13.00;7.60;;;;;;;;;;5376825;26;19988;-67
2024/04/20 07:46:17;;;;;;;11.52;6.70;;;;;;;;;;5377551;26;20007;-68
2024/04/20 07:48:44;;;;;;;12.60;7.40;;;;;;;;;;5377686;26;20442;-65
2024/04/20 07:51:10;;;;;;;12.75;7.45;;;;;;;;;;5377709;26;20010;-66
2024/04/20 07:53:36;;;;;;;11.80;6.90;;;;;;;;;;5377455;26;20015;-66
2024/04/20 07:56:02;;;;;;;11.60;6.60;;;;;;;;;;5377916;26;19997;-64
2024/04/20 07:58:28;;;;;;;10.43;6.18;;;;;;;;;;5377910;26;20390;-65
2024/04/20 08:00:54;;;;;;;10.48;6.13;;;;;;;;;;5378248;26;20081;-67
2024/04/20 08:03:20;;;;;;;10.70;6.22;;;;;;;;;;5372677;26;20018;-67
2024/04/20 08:05:46;;;;;;;10.55;6.20;;;;;;;;;;5376886;26;19999;-68
2024/04/20 08:08:12;;;;;;;10.05;5.88;;;;;;;;;;5377279;26;20008;-67
2024/04/20 08:10:38;;;;;;;11.27;5.93;;;;;;;;;;5376987;26;20618;-67
2024/04/20 08:13:04;;;;;;;10.00;5.90;;;;;;;;;;5375721;26;19992;-67
2024/04/20 08:15:30;;;;;;;10.77;6.30;;;;;;;;;;5374697;26;20000;-67
2024/04/20 08:17:56;;;;;;;11.50;6.70;;;;;;;;;;5377682;26;20333;-69
2024/04/20 08:20:22;;;;;;;11.60;6.72;;;;;;;;;;5376839;26;20003;-67
2024/04/20 08:22:48;;;;;;;11.60;6.80;;;;;;;;;;5378202;26;20112;-66
2024/04/20 08:25:14;;;;;;;11.80;6.85;;;;;;;;;;5377911;26;20482;-66
2024/04/20 08:27:40;;;;;;;10.55;6.20;;;;;;;;;;5378669;26;20052;-66
2024/04/20 08:30:06;;;;;;;11.25;6.50;;;;;;;;;;5376378;26;20004;-63
2024/04/20 08:32:32;;;;;;;11.25;6.57;;;;;;;;;;5376526;26;19996;-60
2024/04/20 08:34:58;;;;;;;11.60;6.68;;;;;;;;;;5377331;26;20012;-65
2024/04/20 08:37:24;;;;;;;11.68;6.60;;;;;;;;;;5376890;26;19992;-62
2024/04/20 08:39:50;;;;;;;12.43;6.97;;;;;;;;;;5377106;26;20036;-65
2024/04/20 08:42:36;;;;;;;12.52;7.45;;;;;;;;;;5411142;26;19999;-71
2024/04/20 08:45:03;;;;;;;11.85;6.90;;;;;;;;;;5412381;26;20003;-60
2024/04/20 08:47:32;;;;;;;11.80;6.90;;;;;;;;;;5412066;26;20015;-63
2024/04/20 08:49:58;;;;;;;21.73;7.85;;;;;;;;;;5412510;26;19988;-64
2024/04/20 08:52:25;;;;;;;12.27;7.15;;;;;;;;;;5411924;26;20416;-65
2024/04/20 08:54:52;;;;;;;13.10;7.60;;;;;;;;;;5411723;26;19991;-65
2024/04/20 08:57:22;;;;;;;12.82;7.50;;;;;;;;;;5412739;26;20034;-65
2024/04/20 08:59:48;;;;;;;14.68;11.75;;;;;;;;;;5410731;26;20065;-65
2024/04/20 09:02:18;;;;;;;19.52;17.63;;;;;;;;;;5410343;26;20003;-65
2024/04/20 09:04:44;;;;;;;20.20;18.30;;;;;;;;;;5412062;26;20373;-65
2024/04/20 09:07:11;;;;;;;21.15;19.25;;;;;;;;;;5412528;26;19996;-65
2024/04/20 09:09:38;;;;;;;21.10;19.20;;;;;;;;;;5411878;26;20048;-67
2024/04/20 09:12:04;;;;;;;20.60;18.70;;;;;;;;;;5411469;26;19996;-66
2024/04/20 09:14:30;;;;;;;20.17;18.38;;;;;;;;;;5410839;26;20010;-65
2024/04/20 09:16:56;;;;;;;18.45;16.65;;;;;;;;;;5412856;26;20002;-63
2024/04/20 09:19:24;;;;;;;15.40;13.60;;;;;;;;;;5411134;26;19991;-60
2024/04/20 09:21:50;;;;;;;14.27;10.43;;;;;;;;;;5411845;26;20381;-65
2024/04/20 09:24:16;;;;;;;14.10;9.98;;;;;;;;;;5412118;26;20006;-63
2024/04/20 09:26:50;;;;;;;14.00;9.70;;;;;;;;;;5412834;26;20004;-63
2024/04/20 09:29:16;;;;;;;14.25;9.73;;;;;;;;;;5412298;26;20006;-64
2024/04/20 09:31:48;;;;;;;14.10;9.50;;;;;;;;;;5411952;26;20098;-65
2024/04/20 09:34:14;;;;;;;14.70;9.68;;;;;;;;;;5411236;26;20084;-65
2024/04/20 09:36:40;;;;;;;13.60;8.68;;;;;;;;;;5409250;26;20019;-62
2024/04/20 09:39:07;;;;;;;13.75;9.07;;;;;;;;;;5411934;26;19995;-64
2024/04/20 09:41:33;;;;;;;13.68;8.90;;;;;;;;;;5410043;26;20000;-64
2024/04/20 09:44:02;;;;;;;13.63;8.63;;;;;;;;;;5411325;26;20003;-64
2024/04/20 09:46:29;;;;;;;13.68;9.07;;;;;;;;;;5380784;26;20358;-64
2024/04/20 09:48:56;;;;;;;14.27;10.50;;;;;;;;;;5376249;26;19997;-64
2024/04/20 09:51:23;;;;;;;14.25;10.60;;;;;;;;;;5375780;26;20023;-64
2024/04/20 09:53:53;;;;;;;14.07;9.90;;;;;;;;;;5375889;26;20006;-64
2024/04/20 09:56:20;;;;;;;14.20;10.10;;;;;;;;;;5376159;26;19996;-64
2024/04/20 09:58:47;;;;;;;14.10;10.05;;;;;;;;;;5374255;26;20093;-64
2024/04/20 10:01:13;;;;;;;14.00;9.90;;;;;;;;;;5376297;26;20576;-67
2024/04/20 10:03:41;;;;;;;13.93;9.75;;;;;;;;;;5375455;26;20430;-66
2024/04/20 10:06:10;;;;;;;14.05;9.98;;;;;;;;;;5375605;26;20010;-62
2024/04/20 10:08:37;;;;;;;14.30;10.30;;;;;;;;;;5374015;26;20330;-65
2024/04/20 10:11:03;;;;;;;13.90;9.52;;;;;;;;;;5375503;26;20000;-66
2024/04/20 10:13:29;;;;;;;13.82;9.30;;;;;;;;;;5375098;26;19992;-64
2024/04/20 10:15:56;;;;;;;13.93;9.60;;;;;;;;;;5374991;26;19996;-60
2024/04/20 10:18:22;;;;;;;14.10;9.98;;;;;;;;;;5375608;26;19997;-65
2024/04/20 10:20:48;;;;;;;13.90;9.50;;;;;;;;;;5374853;26;20004;-62
2024/04/20 10:23:15;;;;;;;13.82;9.27;;;;;;;;;;5375083;26;20427;-63
2024/04/20 10:25:43;;;;;;;13.63;8.55;;;;;;;;;;5373458;26;20024;-64
2024/04/20 10:28:10;;;;;;;13.43;8.18;;;;;;;;;;5375902;26;20000;-65
2024/04/20 10:30:36;;;;;;;13.38;8.10;;;;;;;;;;5375330;26;20397;-65
2024/04/20 10:33:06;;;;;;;13.50;8.40;;;;;;;;;;5374532;26;19992;-66
2024/04/20 10:35:31;;;;;;;13.48;8.30;;;;;;;;;;5375300;26;20000;-61
2024/04/20 10:38:01;;;;;;;13.80;8.27;;;;;;;;;;5375290;26;20003;-65
2024/04/20 10:40:34;;;;;;;13.40;8.20;;;;;;;;;;5375002;26;20011;-66
2024/04/20 10:43:13;;;;;;;13.40;8.20;;;;;;;;;;5373686;26;20462;-67
2024/04/20 10:45:39;;;;;;;13.43;8.07;;;;;;;;;;5374791;26;20606;-66
2024/04/20 10:48:07;;;;;;;13.50;8.20;;;;;;;;;;5375414;26;20011;-69
2024/04/20 10:50:33;;;;;;;13.00;7.60;;;;;;;;;;5371283;26;20011;-65
2024/04/20 10:53:03;;;;;;;12.77;7.38;;;;;;;;;;5374296;26;20003;-67
2024/04/20 10:55:29;;;;;;;13.02;7.60;;;;;;;;;;5375206;26;20559;-58
2024/04/20 10:57:55;;;;;;;13.20;7.80;;;;;;;;;;5374405;26;20606;-61
2024/04/20 11:00:21;;;;;;;16.17;8.90;;;;;;;;;;5374252;26;20660;-59
2024/04/20 11:02:54;;;;;;;13.45;8.20;;;;;;;;;;5374005;26;20007;-65
2024/04/20 11:05:20;;;;;;;13.85;8.43;;;;;;;;;;5369148;26;20220;-63
2024/04/20 11:07:46;;;;;;;13.35;7.90;;;;;;;;;;5374741;26;20021;-61
2024/04/20 11:10:16;;;;;;;12.43;7.20;;;;;;;;;;5374075;26;20429;-66
2024/04/20 11:12:42;;;;;;;13.27;7.88;;;;;;;;;;5373145;26;20000;-65
2024/04/20 11:15:08;;;;;;;13.80;8.73;;;;;;;;;;5373409;26;20000;-65
2024/04/20 11:17:35;;;;;;;13.43;8.13;;;;;;;;;;5374389;26;19996;-65
2024/04/20 11:20:01;;;;;;;13.27;7.85;;;;;;;;;;5374363;26;19992;-62
2024/04/20 11:22:31;;;;;;;13.60;8.60;;;;;;;;;;5374315;26;19996;-65
2024/04/20 11:25:07;;;;;;;13.43;8.00;;;;;;;;;;5374273;26;20000;-65
2024/04/20 11:27:33;;;;;;;13.35;8.13;;;;;;;;;;5374283;26;20011;-65
2024/04/20 11:30:01;;;;;;;13.40;8.00;;;;;;;;;;5374189;26;20007;-65
2024/04/20 11:32:27;;;;;;;13.50;8.10;;;;;;;;;;5374220;26;20154;-67
2024/04/20 11:34:53;;;;;;;13.35;7.95;;;;;;;;;;5371718;26;20023;-65
2024/04/20 11:37:22;;;;;;;13.05;7.72;;;;;;;;;;5001585;26;9999913;-65
2024/04/20 11:39:49;;;;;;;13.38;7.90;;;;;;;;;;5395611;26;20860;-65
2024/04/20 11:42:18;;;;;;;13.38;8.05;;;;;;;;;;5377919;26;19996;-66
2024/04/20 11:44:44;;;;;;;13.90;9.00;;;;;;;;;;5402052;26;20078;-68
2024/04/20 11:47:16;;;;;;;13.43;8.20;;;;;;;;;;5404011;26;19995;-66
2024/04/20 11:49:48;;;;;;;13.35;7.88;;;;;;;;;;5404823;26;20000;-66
2024/04/20 11:55:06;;;;;;;13.43;8.10;;;;;;;;;;5405579;26;20085;-66
2024/04/20 11:57:32;;;;;;;13.30;7.80;;;;;;;;;;5374049;26;20031;-66
2024/04/20 12:00:04;;;;;;;13.20;7.70;;;;;;;;;;5375618;26;20313;-66
2024/04/20 12:02:30;;;;;;;12.80;7.40;;;;;;;;;;5373730;26;20011;-66
2024/04/20 12:04:56;;;;;;;12.07;7.07;;;;;;;;;;5381078;26;20015;-65
2024/04/20 12:07:22;;;;;;;13.20;7.80;;;;;;;;;;5375591;26;20004;-65
2024/04/20 12:09:48;;;;;;;13.50;8.30;;;;;;;;;;5371521;26;20004;-59
2024/04/20 12:12:14;;;;;;;14.00;8.45;;;;;;;;;;5373015;26;20004;-62
2024/04/20 12:14:41;;;;;;;13.45;8.25;;;;;;;;;;5407373;26;20043;-59
2024/04/20 12:17:07;;;;;;;13.38;8.00;;;;;;;;;;5408382;26;20014;-60
2024/04/20 12:19:33;;;;;;;13.45;8.27;;;;;;;;;;5408482;26;19992;-66
2024/04/20 12:22:01;;;;;;;15.75;8.55;;;;;;;;;;5408478;26;19999;-65
2024/04/20 12:24:27;;;;;;;13.10;7.60;;;;;;;;;;5406583;26;20048;-65
2024/04/20 12:26:53;;;;;;;13.48;8.48;;;;;;;;;;5407539;26;20010;-65
2024/04/20 12:29:20;;;;;;;13.65;8.85;;;;;;;;;;5407978;26;19995;-64
2024/04/20 12:31:46;;;;;;;13.63;8.88;;;;;;;;;;5407612;26;20474;-65
2024/04/20 12:34:12;;;;;;;13.75;9.10;;;;;;;;;;5407832;26;20000;-66
2024/04/20 12:36:39;;;;;;;13.75;9.02;;;;;;;;;;5408313;26;20421;-65
2024/04/20 12:39:06;;;;;;;13.77;9.25;;;;;;;;;;5378964;26;20004;-64
2024/04/20 12:41:32;;;;;;;14.00;9.90;;;;;;;;;;5405801;26;20338;-63
2024/04/20 12:43:58;;;;;;;13.85;9.50;;;;;;;;;;5406922;26;20447;-63
2024/04/20 12:46:25;;;;;;;14.10;10.00;;;;;;;;;;5399756;26;19999;-66
2024/04/20 12:48:52;;;;;;;14.10;10.10;;;;;;;;;;5370214;26;20035;-64
2024/04/20 12:51:18;;;;;;;13.82;9.30;;;;;;;;;;5372915;26;20069;-65
2024/04/20 12:53:44;;;;;;;13.82;9.32;;;;;;;;;;5373172;26;20687;-67
2024/04/20 12:56:10;;;;;;;23.30;21.30;;;;;;;;;;5372073;26;20067;-65
2024/04/20 12:58:36;;;;;;;21.65;19.65;;;;;;;;;;5372661;26;19996;-67
2024/04/20 13:01:04;;;;;;;22.30;20.30;;;;;;;;;;5372263;26;19996;-64
2024/04/20 13:03:30;;;;;;;22.00;20.00;;;;;;;;;;5371441;26;20008;-62
2024/04/20 13:05:56;;;;;;;20.10;18.20;;;;;;;;;;5371119;26;20016;-63
2024/04/20 13:08:22;;;;;;;16.67;14.98;;;;;;;;;;5369192;26;20352;-63
2024/04/20 13:10:52;;;;;;;15.60;13.57;;;;;;;;;;5390581;26;20465;-66
2024/04/20 13:13:18;;;;;;;15.48;13.23;;;;;;;;;;5404788;26;20644;-65
2024/04/20 13:15:54;;;;;;;16.52;14.82;;;;;;;;;;5403873;26;20010;-65
2024/04/20 13:18:20;;;;;;;15.73;13.95;;;;;;;;;;5403433;26;19999;-65
2024/04/20 13:21:00;;;;;;;15.68;13.88;;;;;;;;;;5406799;26;20461;-61
2024/04/20 13:23:26;;;;;;;15.60;13.70;;;;;;;;;;5407621;26;20000;-65
2024/04/20 13:25:53;;;;;;;15.43;13.45;;;;;;;;;;5407313;26;19999;-65
2024/04/20 13:28:22;;;;;;;15.00;12.20;;;;;;;;;;5408513;26;19999;-66
2024/04/20 13:30:51;;;;;;;14.90;12.20;;;;;;;;;;5408660;26;20014;-62
2024/04/20 13:33:17;;;;;;;15.13;11.70;;;;;;;;;;5407027;26;20031;-60
2024/04/20 13:35:53;;;;;;;15.55;12.18;;;;;;;;;;5407934;26;20387;-66
2024/04/20 13:38:19;;;;;;;14.35;10.73;;;;;;;;;;5407504;26;20015;-65
2024/04/20 13:40:52;;;;;;;14.18;10.50;;;;;;;;;;5407569;26;20004;-64
2024/04/20 13:43:18;;;;;;;14.30;10.70;;;;;;;;;;5407532;26;20478;-65
2024/04/20 13:45:44;;;;;;;14.70;11.85;;;;;;;;;;5408129;26;20014;-66
2024/04/20 13:48:10;;;;;;;18.10;16.30;;;;;;;;;;5407749;26;20454;-63
2024/04/20 13:50:37;;;;;;;16.63;14.93;;;;;;;;;;5405789;26;20012;-64
2024/04/20 13:53:03;;;;;;;17.80;16.00;;;;;;;;;;5407324;26;20079;-64
2024/04/20 13:55:29;;;;;;;15.80;14.10;;;;;;;;;;5407173;26;19991;-66
2024/04/20 13:57:55;;;;;;;15.13;12.93;;;;;;;;;;5408524;26;19991;-66
2024/04/20 14:00:21;;;;;;;14.57;11.48;;;;;;;;;;5407292;26;20077;-66
2024/04/20 14:02:47;;;;;;;14.60;11.50;;;;;;;;;;5407558;26;20475;-67
2024/04/20 14:05:13;;;;;;;14.57;11.35;;;;;;;;;;5407610;26;19992;-67
2024/04/20 14:07:44;;;;;;;14.63;11.77;;;;;;;;;;5407913;26;19995;-68
2024/04/20 14:10:10;;;;;;;14.80;12.35;;;;;;;;;;5408439;26;20023;-65
2024/04/20 14:12:36;;;;;;;15.20;13.20;;;;;;;;;;5407764;26;20028;-65
2024/04/20 14:15:02;;;;;;;14.90;12.60;;;;;;;;;;5407359;26;20011;-65
2024/04/20 14:17:28;;;;;;;14.65;11.90;;;;;;;;;;5407394;26;20053;-64
2024/04/20 14:19:54;;;;;;;13.90;9.55;;;;;;;;;;5406833;26;20490;-62
2024/04/20 14:22:20;;;;;;;13.85;9.48;;;;;;;;;;5406796;26;20076;-63
2024/04/20 14:24:46;;;;;;;13.93;9.60;;;;;;;;;;5406900;26;20003;-65
2024/04/20 14:27:12;;;;;;;14.32;10.85;;;;;;;;;;5409744;26;20010;-64
2024/04/20 14:29:38;;;;;;;14.45;11.20;;;;;;;;;;5411628;26;19996;-64